Time;durP1;ratioP1;P1;durP2;ratioP2;P2;SDS_P1;SDS_P2;PMS_P1;PMS_P2;Temp;Humidity;BMP_temperature;BMP_pressure;BME280_temperature;BME280_humidity;BME280_pressure;Samples;Min_cycle;Max_cycle;Signal;HPM_P1;HPM_P2
2021/08/21 00:00:37;;;;;;;47.58;21.38;;;;;;;13.96;99.73;101989.13;5003808;28;20038;-87
2021/08/21 00:03:03;;;;;;;41.75;20.00;;;;;;;13.95;99.55;101990.84;5015564;28;20026;-84
2021/08/21 00:05:49;;;;;;;48.53;20.60;;;;;;;13.95;99.39;101989.97;4994643;28;20486;-82
2021/08/21 00:08:20;;;;;;;47.13;21.63;;;;;;;13.92;99.45;101984.63;5008280;28;20506;-82
2021/08/21 00:10:45;;;;;;;49.70;22.13;;;;;;;13.89;99.44;101995.13;5008714;28;20033;-81
2021/08/21 00:13:31;;;;;;;46.22;21.73;;;;;;;13.88;99.24;101982.78;5000956;28;20026;-80
2021/08/21 00:15:56;;;;;;;52.70;22.50;;;;;;;13.87;99.42;101986.28;5004943;28;20503;-85
2021/08/21 00:18:22;;;;;;;53.38;23.35;;;;;;;13.84;99.33;101976.50;4996182;28;20038;-84
2021/08/21 00:20:48;;;;;;;51.47;23.08;;;;;;;13.82;99.24;101987.06;5001005;28;20433;-81
2021/08/21 00:23:14;;;;;;;45.55;21.35;;;;;;;13.81;99.25;101984.41;5012208;28;20053;-82
2021/08/21 00:25:59;;;;;;;50.63;22.45;;;;;;;13.78;99.29;101985.22;5009114;28;20392;-82
2021/08/21 00:28:27;;;;;;;49.85;21.38;;;;;;;13.75;99.25;101987.78;5008361;28;20537;-84
2021/08/21 00:30:52;;;;;;;52.75;22.15;;;;;;;13.71;99.18;101988.56;5009157;28;20030;-81
2021/08/21 00:33:58;;;;;;;62.72;25.17;;;;;;;13.68;99.35;101985.88;4995802;28;20029;-87
2021/08/21 00:36:45;;;;;;;50.30;21.40;;;;;;;13.63;99.38;101976.94;5003435;28;20041;-83
2021/08/21 00:39:10;;;;;;;53.92;22.35;;;;;;;13.58;99.29;101973.28;5002225;28;20133;-83
2021/08/21 00:41:36;;;;;;;54.95;22.40;;;;;;;13.57;99.24;101971.53;5011887;28;20491;-79
2021/08/21 00:44:22;;;;;;;61.10;23.60;;;;;;;13.54;99.21;101975.00;5010324;28;20053;-80
2021/08/21 00:47:37;;;;;;;57.35;22.55;;;;;;;13.49;99.05;101974.88;5010114;28;20038;-82
2021/08/21 00:50:03;;;;;;;63.88;24.35;;;;;;;13.46;99.25;101974.81;5010615;28;20030;-85
2021/08/21 00:52:34;;;;;;;59.08;23.77;;;;;;;13.44;99.42;101968.59;5006882;28;20029;-82
2021/08/21 00:55:00;;;;;;;63.45;24.70;;;;;;;13.43;99.52;101966.81;4997130;28;20072;-87
2021/08/21 00:57:26;;;;;;;63.80;26.10;;;;;;;13.43;99.64;101968.53;4994205;28;20054;-80
2021/08/21 00:59:52;;;;;;;65.63;25.83;;;;;;;13.42;99.85;101962.38;4992680;28;20141;-82
2021/08/21 01:02:22;;;;;;;64.03;25.98;;;;;;;13.43;99.88;101972.09;5014154;28;20025;-86
2021/08/21 01:04:58;;;;;;;67.07;25.70;;;;;;;13.44;99.96;101965.03;5012384;28;20396;-82
2021/08/21 01:07:29;;;;;;;61.58;24.42;;;;;;;13.43;99.86;101969.44;4998091;28;20542;-85
2021/08/21 01:10:15;;;;;;;64.95;25.02;;;;;;;13.43;100.00;101969.44;4987565;28;20037;-81
2021/08/21 01:13:01;;;;;;;54.03;23.65;;;;;;;13.41;99.88;101968.50;5010217;28;20056;-86
2021/08/21 01:15:27;;;;;;;56.90;23.73;;;;;;;13.38;99.80;101963.16;4997058;28;20588;-82
2021/08/21 01:17:53;;;;;;;57.15;23.35;;;;;;;13.37;99.54;101964.00;5009114;28;20113;-80
2021/08/21 01:20:19;;;;;;;56.90;23.42;;;;;;;13.36;99.68;101961.34;5008221;28;20034;-83
2021/08/21 01:22:45;;;;;;;57.35;23.00;;;;;;;13.35;99.77;101965.72;5008642;28;20125;-83
2021/08/21 01:25:24;;;;;;;61.88;24.27;;;;;;;13.36;99.61;101971.91;5003828;28;20440;-82
2021/08/21 01:27:49;;;;;;;59.70;23.90;;;;;;;13.33;100.00;101956.84;5009853;28;20037;-87
2021/08/21 01:30:16;;;;;;;59.65;22.98;;;;;;;13.30;99.58;101957.66;5012060;28;20074;-82
2021/08/21 01:32:44;;;;;;;58.17;22.00;;;;;;;13.29;99.58;101965.56;4994426;28;20449;-82
2021/08/21 01:35:10;;;;;;;56.25;23.25;;;;;;;13.26;99.49;101965.50;5012978;28;20072;-83
2021/08/21 01:37:36;;;;;;;55.78;22.67;;;;;;;13.24;99.67;101954.88;5012551;28;20046;-84
2021/08/21 01:40:22;;;;;;;59.75;23.75;;;;;;;13.19;99.58;101959.16;5012344;28;20551;-80
2021/08/21 01:42:50;;;;;;;60.22;24.58;;;;;;;13.16;99.55;101959.97;5021596;28;20048;-84
2021/08/21 01:45:16;;;;;;;60.03;23.60;;;;;;;13.13;99.73;101965.19;5010359;28;20301;-82
2021/08/21 01:48:01;;;;;;;59.35;24.38;;;;;;;13.10;99.94;101961.59;5019475;28;20030;-81
2021/08/21 01:50:27;;;;;;;67.32;23.35;;;;;;;13.08;99.63;101966.84;5001655;28;20087;-79
2021/08/21 01:52:52;;;;;;;67.15;24.52;;;;;;;13.07;100.00;101967.69;5004948;28;20022;-80
2021/08/21 01:55:38;;;;;;;69.45;26.00;;;;;;;13.07;100.00;101970.31;5011839;28;20124;-84
2021/08/21 01:58:23;;;;;;;69.82;25.92;;;;;;;13.08;100.00;101971.25;5003026;28;20037;-83
2021/08/21 02:00:49;;;;;;;71.15;26.20;;;;;;;13.08;100.00;101966.84;5006475;28;20029;-80
2021/08/21 02:03:17;;;;;;;71.13;25.10;;;;;;;13.10;100.00;101962.50;5003020;28;20077;-83
2021/08/21 02:06:03;;;;;;;73.03;25.20;;;;;;;13.14;100.00;101959.06;5012684;28;20120;-85
2021/08/21 02:08:28;;;;;;;65.80;25.20;;;;;;;13.19;100.00;101958.28;5028134;28;20060;-86
2021/08/21 02:10:54;;;;;;;66.88;24.27;;;;;;;13.22;100.00;101963.63;5014559;28;20395;-77
2021/08/21 02:13:19;;;;;;;62.28;23.95;;;;;;;13.24;100.00;101972.47;5004325;28;20022;-81
2021/08/21 02:16:05;;;;;;;60.60;23.05;;;;;;;13.24;100.00;101965.47;4996654;28;20030;-82
2021/08/21 02:18:30;;;;;;;59.08;23.48;;;;;;;13.29;100.00;101963.81;5004374;28;20557;-84
2021/08/21 02:20:56;;;;;;;64.00;21.90;;;;;;;13.31;100.00;101963.84;5011421;28;20034;-80
2021/08/21 02:23:41;;;;;;;58.90;23.40;;;;;;;13.32;100.00;101962.97;5010505;28;20030;-81
2021/08/21 02:26:07;;;;;;;54.22;22.08;;;;;;;13.32;100.00;101961.25;5003536;28;20438;-81
2021/08/21 02:28:35;;;;;;;53.80;21.88;;;;;;;13.31;100.00;101959.44;5011842;28;20038;-85
2021/08/21 02:31:03;;;;;;;50.88;20.02;;;;;;;13.29;100.00;101962.91;5010597;28;20022;-85
2021/08/21 02:33:49;;;;;;;48.13;21.58;;;;;;;13.27;100.00;101957.59;5010235;28;20041;-83
2021/08/21 02:36:15;;;;;;;48.63;20.65;;;;;;;13.25;99.99;101963.69;5003354;28;20061;-85
2021/08/21 02:39:03;;;;;;;49.08;19.90;;;;;;;13.23;99.81;101961.03;5005682;28;20059;-83
2021/08/21 02:41:29;;;;;;;48.13;19.80;;;;;;;13.20;99.55;101966.25;5017135;28;20049;-80
2021/08/21 02:43:55;;;;;;;49.95;19.75;;;;;;;13.18;99.67;101961.78;5017056;28;20033;-83
2021/08/21 02:46:23;;;;;;;46.28;19.48;;;;;;;13.15;99.38;101958.19;5014797;28;20036;-81
2021/08/21 02:49:09;;;;;;;46.38;19.33;;;;;;;13.13;99.43;101957.28;4993832;28;20026;-86
2021/08/21 02:51:37;;;;;;;46.67;20.73;;;;;;;13.13;99.38;101954.63;5008503;28;20022;-84
2021/08/21 02:54:05;;;;;;;48.72;20.38;;;;;;;13.12;99.60;101951.97;5021153;28;20558;-84
2021/08/21 02:56:31;;;;;;;46.92;21.35;;;;;;;13.10;99.65;101951.94;5009583;28;20021;-82
2021/08/21 02:59:16;;;;;;;45.85;20.60;;;;;;;13.11;99.75;101956.31;5008286;28;20042;-84
2021/08/21 03:01:44;;;;;;;53.05;21.35;;;;;;;13.10;99.84;101951.94;4992207;28;20030;-81
2021/08/21 03:04:12;;;;;;;47.28;20.63;;;;;;;13.08;99.81;101945.69;4998633;28;20033;-83
2021/08/21 03:06:40;;;;;;;52.75;20.50;;;;;;;13.08;99.92;101944.81;5008781;28;20392;-84
2021/08/21 03:09:09;;;;;;;57.53;21.45;;;;;;;13.06;99.96;101947.41;5015002;28;20029;-82
2021/08/21 03:11:34;;;;;;;56.63;21.40;;;;;;;13.08;99.97;101948.34;5025350;28;20143;-81
2021/08/21 03:14:20;;;;;;;57.35;22.25;;;;;;;13.08;99.97;101944.81;5010687;28;20120;-83
2021/08/21 03:16:48;;;;;;;51.30;20.65;;;;;;;13.06;100.00;101947.41;5027095;28;20102;-79
2021/08/21 03:19:16;;;;;;;55.83;22.70;;;;;;;13.06;99.91;101950.06;5008964;28;20041;-83
2021/08/21 03:21:43;;;;;;;57.63;23.55;;;;;;;13.06;100.00;101947.41;4995499;28;20593;-86
2021/08/21 03:24:09;;;;;;;53.22;22.38;;;;;;;13.07;100.00;101946.53;4993035;28;20058;-85
2021/08/21 03:26:34;;;;;;;52.00;22.92;;;;;;;13.10;100.00;101944.00;4996354;28;20368;-81
2021/08/21 03:29:02;;;;;;;59.17;24.77;;;;;;;13.15;100.00;101946.75;5010871;28;20479;-84
2021/08/21 03:31:28;;;;;;;63.03;26.05;;;;;;;13.19;100.00;101940.66;4992927;28;20476;-79
2021/08/21 03:33:53;;;;;;;61.58;24.67;;;;;;;13.25;100.00;101943.47;4993054;28;20095;-79
2021/08/21 03:36:19;;;;;;;68.70;25.90;;;;;;;13.30;100.00;101935.63;5008832;28;20029;-80
2021/08/21 03:38:45;;;;;;;73.00;27.25;;;;;;;13.36;100.00;101938.47;4991020;28;20038;-82
2021/08/21 03:41:10;;;;;;;63.92;25.38;;;;;;;13.40;100.00;101935.03;4995648;28;20029;-82
2021/08/21 03:43:36;;;;;;;69.82;26.65;;;;;;;13.45;100.00;101935.13;5007558;28;20119;-82
2021/08/21 03:46:04;;;;;;;70.00;28.10;;;;;;;13.49;100.00;101937.84;4997346;28;20502;-82
2021/08/21 03:48:32;;;;;;;71.50;26.92;;;;;;;13.54;100.00;101942.34;4993995;28;20498;-82
2021/08/21 03:50:57;;;;;;;74.75;27.77;;;;;;;13.60;100.00;101937.19;5016373;28;20026;-81
2021/08/21 03:53:25;;;;;;;80.03;28.55;;;;;;;13.65;100.00;101938.19;5026871;28;20044;-85
2021/08/21 03:55:53;;;;;;;81.93;28.95;;;;;;;13.69;100.00;101937.41;5005487;28;20045;-84
2021/08/21 03:58:19;;;;;;;75.80;30.05;;;;;;;13.72;100.00;101934.81;4994239;28;20031;-81
2021/08/21 04:00:44;;;;;;;81.13;31.65;;;;;;;13.75;100.00;101928.69;4990886;28;20092;-81
2021/08/21 04:03:11;;;;;;;80.97;32.05;;;;;;;13.78;100.00;101934.03;4984799;28;20038;-81
2021/08/21 04:05:37;;;;;;;87.22;32.00;;;;;;;13.79;100.00;101930.53;5009274;28;20063;-86
2021/08/21 04:08:23;;;;;;;79.65;30.50;;;;;;;13.77;100.00;101927.00;4992946;28;20030;-84
2021/08/21 04:10:51;;;;;;;79.47;27.77;;;;;;;13.75;100.00;101934.00;5003276;28;20373;-85
2021/08/21 04:13:16;;;;;;;79.78;31.98;;;;;;;13.73;100.00;101926.03;5009253;28;20030;-84
2021/08/21 04:15:45;;;;;;;81.93;30.92;;;;;;;13.73;100.00;101931.31;5007124;28;20030;-83
2021/08/21 04:18:11;;;;;;;92.82;33.38;;;;;;;13.74;100.00;101933.09;4998118;28;20033;-81
2021/08/21 04:20:36;;;;;;;96.70;33.15;;;;;;;13.76;100.00;101936.66;4992433;28;20050;-81
2021/08/21 04:23:02;;;;;;;98.20;35.97;;;;;;;13.78;100.00;101931.41;4996674;28;20116;-83
2021/08/21 04:25:50;;;;;;;93.65;35.22;;;;;;;13.81;100.00;101929.72;5010176;28;20025;-83
2021/08/21 04:28:16;;;;;;;84.10;33.05;;;;;;;13.82;100.00;101928.88;5015508;28;20034;-81
2021/08/21 04:30:43;;;;;;;97.32;36.90;;;;;;;13.87;100.00;101931.59;5000079;28;20036;-79
2021/08/21 04:33:08;;;;;;;106.55;37.28;;;;;;;13.89;100.00;101928.97;5024245;28;20041;-83
2021/08/21 04:35:36;;;;;;;102.90;38.03;;;;;;;13.92;100.00;101931.72;5018303;28;20050;-86
2021/08/21 04:38:02;;;;;;;113.32;39.70;;;;;;;13.98;100.00;101934.47;4992802;28;20041;-82
2021/08/21 04:40:31;;;;;;;109.10;40.03;;;;;;;14.02;100.00;101933.66;5008187;28;20042;-84
2021/08/21 04:42:57;;;;;;;108.95;37.92;;;;;;;14.08;100.00;101928.50;4998622;28;20022;-83
2021/08/21 04:45:22;;;;;;;116.38;42.38;;;;;;;14.09;100.00;101924.97;5009592;28;20049;-83
2021/08/21 04:47:50;;;;;;;122.65;43.92;;;;;;;14.10;100.00;101932.06;5012693;28;20481;-80
2021/08/21 04:50:18;;;;;;;114.20;41.78;;;;;;;14.10;100.00;101934.69;4992229;28;20042;-79
2021/08/21 04:52:44;;;;;;;123.32;44.33;;;;;;;14.11;100.00;101933.84;4994531;28;20040;-82
2021/08/21 04:55:10;;;;;;;122.28;43.85;;;;;;;14.13;100.00;101932.13;5004836;28;20037;-81
2021/08/21 04:57:35;;;;;;;146.43;49.25;;;;;;;14.18;100.00;101939.28;5011291;28;20062;-80
2021/08/21 05:00:03;;;;;;;142.43;51.72;;;;;;;14.28;100.00;101951.81;5004143;28;20463;-84
2021/08/21 05:02:51;;;;;;;180.82;59.40;;;;;;;14.36;100.00;101949.31;5012128;28;20041;-79
2021/08/21 05:05:17;;;;;;;167.80;56.50;;;;;;;14.44;100.00;101942.41;5004899;28;20395;-80
2021/08/21 05:07:45;;;;;;;156.38;54.85;;;;;;;14.48;100.00;101953.06;4997470;28;20113;-80
2021/08/21 05:10:12;;;;;;;160.77;55.85;;;;;;;14.53;100.00;101937.28;5012101;28;20488;-80
2021/08/21 05:12:38;;;;;;;156.35;52.85;;;;;;;14.58;100.00;101955.88;5006632;28;20079;-81
2021/08/21 05:15:23;;;;;;;163.57;54.42;;;;;;;14.64;100.00;101954.25;5006314;28;20034;-82
2021/08/21 05:17:53;;;;;;;163.18;54.63;;;;;;;14.66;100.00;101955.19;5011996;28;20400;-81
2021/08/21 05:20:26;;;;;;;162.88;55.20;;;;;;;14.72;100.00;101950.84;5002778;28;20046;-81
2021/08/21 05:23:14;;;;;;;159.27;54.55;;;;;;;14.75;100.00;101943.84;5003902;28;20026;-80
2021/08/21 05:25:41;;;;;;;150.07;52.30;;;;;;;14.78;100.00;101948.31;5001744;28;20534;-82
2021/08/21 05:28:08;;;;;;;146.35;51.55;;;;;;;14.78;100.00;101949.19;5011998;28;20109;-85
2021/08/21 05:30:38;;;;;;;137.73;49.67;;;;;;;14.79;100.00;101945.69;4997963;28;20054;-80
2021/08/21 05:33:23;;;;;;;149.35;52.97;;;;;;;14.79;100.00;101950.09;5007786;28;20066;-82
2021/08/21 05:35:49;;;;;;;132.32;51.53;;;;;;;14.82;100.00;101947.50;4994625;28;20492;-83
2021/08/21 05:38:15;;;;;;;137.52;48.67;;;;;;;14.83;100.00;101950.16;5012021;28;20529;-80
2021/08/21 05:40:41;;;;;;;163.65;55.75;;;;;;;14.87;100.00;101948.47;5012947;28;20038;-83
2021/08/21 05:43:26;;;;;;;157.35;55.17;;;;;;;14.94;100.00;101957.44;5012891;28;20535;-82
2021/08/21 05:45:52;;;;;;;166.05;57.28;;;;;;;15.05;100.00;101955.81;5025836;28;20044;-82
2021/08/21 05:48:17;;;;;;;165.48;60.05;;;;;;;15.20;100.00;101952.53;5017876;28;20022;-84
2021/08/21 05:50:43;;;;;;;155.02;56.08;;;;;;;15.35;100.00;101954.50;4996114;28;20029;-79
2021/08/21 05:53:08;;;;;;;142.65;52.75;;;;;;;15.47;100.00;101961.75;4999089;28;20092;-80
2021/08/21 05:55:34;;;;;;;130.30;49.80;;;;;;;15.51;100.00;101953.84;5017737;28;20029;-80
2021/08/21 05:57:59;;;;;;;126.63;49.90;;;;;;;15.58;100.00;101953.94;5004107;28;20022;-84
2021/08/21 06:00:25;;;;;;;125.75;48.67;;;;;;;15.67;100.00;101956.75;5007841;28;20057;-80
2021/08/21 06:02:53;;;;;;;124.05;48.75;;;;;;;15.74;100.00;101961.25;5001525;28;20484;-82
2021/08/21 06:05:18;;;;;;;102.57;45.30;;;;;;;15.86;100.00;101957.91;5005718;28;20034;-81
2021/08/21 06:07:44;;;;;;;104.25;44.50;;;;;;;15.94;100.00;101957.97;4998322;28;20433;-80
2021/08/21 06:10:10;;;;;;;98.43;46.15;;;;;;;16.05;100.00;101956.34;5001596;28;20030;-85
2021/08/21 06:12:56;;;;;;;86.38;40.58;;;;;;;16.20;100.00;101960.94;5025761;28;20116;-84
2021/08/21 06:15:21;;;;;;;89.38;38.55;;;;;;;16.28;100.00;101953.06;5011381;28;20032;-84
2021/08/21 06:17:47;;;;;;;87.90;40.65;;;;;;;16.37;99.34;101953.16;4992833;28;20517;-81
2021/08/21 06:20:13;;;;;;;82.90;37.80;;;;;;;16.46;98.97;101947.94;5011577;28;20037;-86
2021/08/21 06:22:39;;;;;;;73.25;36.15;;;;;;;16.58;98.61;101951.59;5025541;28;20038;-80
2021/08/21 06:25:24;;;;;;;82.93;38.67;;;;;;;16.75;98.66;101954.41;5010703;28;20044;-79
2021/08/21 06:27:51;;;;;;;65.65;34.63;;;;;;;16.90;97.61;101962.56;4995360;28;20022;-85
2021/08/21 06:30:16;;;;;;;66.35;34.20;;;;;;;17.02;96.45;101959.09;5028818;28;20047;-85
2021/08/21 06:32:42;;;;;;;58.05;31.67;;;;;;;17.15;95.79;101946.78;5011653;28;20037;-82
2021/08/21 06:35:14;;;;;;;65.05;34.90;;;;;;;17.32;95.54;101953.09;5011253;28;20495;-78
2021/08/21 06:37:39;;;;;;;56.80;30.40;;;;;;;17.58;93.06;101954.13;5011042;28;20061;-80
2021/08/21 06:40:05;;;;;;;50.33;31.05;;;;;;;18.09;93.18;101949.94;4994018;28;20513;-81
2021/08/21 06:42:31;;;;;;;43.95;27.25;;;;;;;18.68;90.83;101948.28;5009713;28;20030;-78
2021/08/21 06:44:56;;;;;;;41.75;26.30;;;;;;;18.97;86.65;101941.19;5005318;28;20485;-86
2021/08/21 06:47:22;;;;;;;42.33;26.67;;;;;;;19.03;85.69;101933.16;5000774;28;20022;-85
2021/08/21 06:49:59;;;;;;;41.85;25.30;;;;;;;18.87;85.27;101938.50;4999289;28;20464;-88
2021/08/21 06:52:44;;;;;;;38.42;24.35;;;;;;;18.61;85.63;101935.84;5027710;28;20070;-81
2021/08/21 06:55:10;;;;;;;43.75;26.17;;;;;;;18.44;86.43;101938.47;4996128;28;20409;-87
2021/08/21 06:57:38;;;;;;;41.58;25.52;;;;;;;18.28;87.64;101944.66;5009413;28;20038;-82
2021/08/21 07:00:07;;;;;;;46.22;27.25;;;;;;;18.10;88.39;101943.72;5010662;28;20549;-83
2021/08/21 07:02:33;;;;;;;43.35;26.40;;;;;;;17.95;89.55;101946.34;5027639;28;20531;-88
2021/08/21 07:04:58;;;;;;;46.80;27.55;;;;;;;17.81;90.37;101948.91;4999144;28;20042;-88
2021/08/21 07:07:24;;;;;;;50.22;27.75;;;;;;;17.73;91.19;101958.63;5023022;28;20022;-84
2021/08/21 07:09:49;;;;;;;47.30;26.55;;;;;;;17.73;91.62;101956.88;5002383;28;20403;-81
2021/08/21 07:12:15;;;;;;;48.03;27.33;;;;;;;17.86;92.81;101960.47;4979775;28;20030;-86
2021/08/21 07:14:41;;;;;;;50.72;27.45;;;;;;;18.07;92.41;101958.81;4995383;28;20396;-87
2021/08/21 07:17:26;;;;;;;45.92;26.70;;;;;;;18.35;91.67;101949.13;5007101;28;20038;-87
2021/08/21 07:19:52;;;;;;;42.45;25.20;;;;;;;18.50;88.71;101941.16;5011597;28;20447;-88
2021/08/21 07:22:17;;;;;;;39.35;25.63;;;;;;;18.62;87.27;101939.38;5022979;28;20025;-89
2021/08/21 07:24:43;;;;;;;37.92;23.65;;;;;;;18.80;88.36;101942.06;5019820;28;20041;-83
2021/08/21 07:27:28;;;;;;;33.20;22.33;;;;;;;18.93;86.78;101931.44;5012704;28;20026;-87
2021/08/21 07:29:54;;;;;;;31.38;20.90;;;;;;;19.07;85.05;101926.94;5005261;28;20023;-88
2021/08/21 07:32:39;;;;;;;35.55;21.27;;;;;;;19.28;85.71;101931.38;5014508;28;20037;-90
2021/08/21 07:35:08;;;;;;;35.50;22.50;;;;;;;19.53;84.97;101932.19;4991751;28;20042;-84
2021/08/21 07:37:35;;;;;;;33.90;22.10;;;;;;;19.74;84.10;101926.75;4996760;28;20129;-84
2021/08/21 07:40:05;;;;;;;33.08;22.60;;;;;;;19.89;82.30;101921.41;5004846;28;20026;-89
2021/08/21 07:42:31;;;;;;;32.72;22.38;;;;;;;19.98;82.33;101921.34;4994471;28;20030;-85
2021/08/21 07:44:56;;;;;;;34.88;22.15;;;;;;;20.01;81.03;101917.78;5010491;28;20022;-77
2021/08/21 07:47:22;;;;;;;31.75;20.42;;;;;;;20.03;80.98;101918.63;5019928;28;20419;-83
2021/08/21 07:50:07;;;;;;;30.77;21.95;;;;;;;20.23;82.04;101926.53;5017646;28;20033;-79
2021/08/21 07:52:33;;;;;;;29.70;20.00;;;;;;;20.41;79.98;101925.53;4995091;28;20122;-88
2021/08/21 07:54:59;;;;;;;27.00;18.70;;;;;;;20.30;79.51;101916.72;4978228;28;20049;-85
2021/08/21 07:57:44;;;;;;;28.92;19.15;;;;;;;20.55;79.36;101915.63;4999014;28;20466;-85
2021/08/21 08:00:30;;;;;;;23.02;16.90;;;;;;;20.51;78.52;101918.31;5002746;28;20034;-83
2021/08/21 08:02:56;;;;;;;24.92;16.50;;;;;;;20.54;77.24;101916.50;5012822;28;20021;-83
2021/08/21 08:05:21;;;;;;;22.77;15.73;;;;;;;20.54;76.96;101912.97;5014116;28;20460;-87
2021/08/21 08:07:47;;;;;;;22.15;15.73;;;;;;;20.45;77.89;101913.91;5007172;28;20484;-88
2021/08/21 08:10:12;;;;;;;24.00;16.17;;;;;;;20.50;78.52;101920.13;5020254;28;20045;-81
2021/08/21 08:12:38;;;;;;;21.33;15.18;;;;;;;20.63;78.65;101914.66;5009670;28;20056;-85
2021/08/21 08:15:04;;;;;;;23.23;14.50;;;;;;;20.69;77.98;101918.22;5010982;28;20026;-78
2021/08/21 08:17:30;;;;;;;25.08;13.77;;;;;;;20.84;76.92;101914.50;5008154;28;20026;-82
2021/08/21 08:19:55;;;;;;;20.17;14.18;;;;;;;20.91;75.73;101909.13;4994038;28;20026;-78
2021/08/21 08:22:21;;;;;;;19.75;13.27;;;;;;;21.17;75.32;101919.56;5011202;28;20061;-79
2021/08/21 08:24:55;;;;;;;17.92;13.43;;;;;;;21.40;74.25;101911.28;4994866;28;20044;-84
2021/08/21 08:27:20;;;;;;;20.38;13.75;;;;;;;21.59;72.87;101911.09;5026500;28;20506;-83
2021/08/21 08:29:46;;;;;;;18.88;12.00;;;;;;;21.75;72.61;101912.66;4994059;28;20053;-84
2021/08/21 08:32:31;;;;;;;14.18;11.27;;;;;;;22.08;70.72;101913.09;5011191;28;20033;-81
2021/08/21 08:34:57;;;;;;;15.77;11.98;;;;;;;22.35;69.39;101905.59;4994064;28;20049;-82
2021/08/21 08:37:42;;;;;;;18.23;12.40;;;;;;;22.54;69.14;101912.41;5010915;28;20034;-82
2021/08/21 08:40:12;;;;;;;20.13;12.60;;;;;;;22.65;68.21;101903.31;5024982;28;20113;-86
2021/08/21 08:42:42;;;;;;;15.55;12.45;;;;;;;22.70;67.03;101904.13;5004061;28;20534;-84
2021/08/21 08:45:09;;;;;;;14.80;11.82;;;;;;;22.72;70.37;101918.38;4995364;28;20033;-87
2021/08/21 08:47:55;;;;;;;17.48;12.25;;;;;;;22.67;70.44;101917.63;4995574;28;20030;-83
2021/08/21 08:50:20;;;;;;;14.82;11.05;;;;;;;22.68;68.57;101914.00;4996826;28;20075;-84
2021/08/21 08:52:53;;;;;;;16.65;11.38;;;;;;;22.55;70.11;101918.69;5006524;28;20038;-88
2021/08/21 08:55:21;;;;;;;15.07;10.60;;;;;;;22.46;69.61;101924.19;5008705;28;20026;-81
2021/08/21 08:57:50;;;;;;;14.07;11.35;;;;;;;22.38;68.86;101918.94;4992521;28;20042;-82
2021/08/21 09:00:35;;;;;;;15.35;11.40;;;;;;;22.22;69.75;101924.53;4996664;28;20506;-86
2021/08/21 09:03:04;;;;;;;20.98;12.52;;;;;;;22.19;69.49;101921.00;5006022;28;20045;-81
2021/08/21 09:05:40;;;;;;;14.50;11.35;;;;;;;22.29;72.17;101935.13;4997639;28;20033;-80
2021/08/21 09:08:09;;;;;;;17.10;11.68;;;;;;;22.39;70.98;101928.78;4975589;28;20040;-85
2021/08/21 09:10:34;;;;;;;19.38;11.52;;;;;;;22.48;70.36;101922.41;4992160;28;20448;-80
2021/08/21 09:13:12;;;;;;;15.32;10.63;;;;;;;22.72;69.47;101932.72;4991663;28;20046;-81
2021/08/21 09:15:40;;;;;;;16.27;11.35;;;;;;;22.98;69.87;101922.41;4991970;28;20037;-81
2021/08/21 09:18:09;;;;;;;15.75;11.32;;;;;;;23.10;66.49;101911.47;5008923;28;20026;-84
2021/08/21 09:21:01;;;;;;;16.77;9.95;;;;;;;23.12;66.50;101908.75;5009451;28;20048;-86
2021/08/21 09:23:55;;;;;;;15.20;10.15;;;;;;;23.39;66.66;101920.78;4991816;28;20034;-80
2021/08/21 09:26:27;;;;;;;15.40;9.90;;;;;;;23.63;65.35;101902.38;4993483;28;20080;-86
2021/08/21 09:28:57;;;;;;;14.32;8.75;;;;;;;23.95;67.99;101909.78;4995615;28;20037;-82
2021/08/21 09:31:47;;;;;;;11.93;9.32;;;;;;;24.30;64.25;101900.03;5015445;28;20053;-82
2021/08/21 09:34:18;;;;;;;11.98;8.27;;;;;;;25.17;61.80;101898.69;5024808;28;20045;-84
2021/08/21 09:37:06;;;;;;;9.80;7.32;;;;;;;25.67;61.11;101900.03;5004209;28;20023;-80
2021/08/21 09:40:12;;;;;;;15.93;8.32;;;;;;;26.02;55.51;101880.09;5010741;28;20029;-84
2021/08/21 09:42:38;;;;;;;12.63;8.68;;;;;;;26.17;54.74;101870.63;5017552;28;20109;-86
2021/08/21 09:45:43;;;;;;;11.77;7.32;;;;;;;26.94;54.73;101880.66;5011404;28;20021;-81
2021/08/21 09:48:29;;;;;;;8.98;7.78;;;;;;;27.43;55.14;101872.59;4999943;28;20039;-81
2021/08/21 09:50:54;;;;;;;10.93;7.85;;;;;;;28.00;53.57;101877.56;5009836;28;20022;-86
2021/08/21 09:53:45;;;;;;;8.52;6.65;;;;;;;28.16;52.68;101877.84;5013621;28;20045;-81
2021/08/21 09:56:11;;;;;;;10.10;6.70;;;;;;;28.51;48.69;101857.41;5010683;28;20044;-82
2021/08/21 09:58:39;;;;;;;8.50;6.20;;;;;;;28.89;46.69;101859.44;5012239;28;20100;-83
2021/08/21 10:01:26;;;;;;;13.35;6.53;;;;;;;28.99;47.08;101857.19;5009096;28;20091;-84
2021/08/21 10:04:32;;;;;;;8.15;5.85;;;;;;;29.12;47.06;101858.41;5011460;28;20038;-86
2021/08/21 10:07:07;;;;;;;7.85;5.60;;;;;;;28.73;47.23;101860.13;5012384;28;20033;-83
2021/08/21 10:09:51;;;;;;;9.38;6.18;;;;;;;27.82;50.01;101858.41;5012150;28;20033;-82
2021/08/21 10:12:39;;;;;;;7.05;5.82;;;;;;;27.46;51.94;101866.19;4995675;28;20049;-83
2021/08/21 10:15:27;;;;;;;8.13;5.70;;;;;;;27.36;51.95;101861.13;4996156;28;20681;-82
2021/08/21 10:17:57;;;;;;;11.48;4.80;;;;;;;27.65;52.74;101856.41;5012067;28;20072;-81
2021/08/21 10:20:23;;;;;;;6.75;5.25;;;;;;;27.80;50.53;101860.31;4995978;28;20034;-84
2021/08/21 10:23:27;;;;;;;;;;;;;;;;;;;;;
2021/08/21 10:26:51;;;;;;;17.95;5.72;;;;;;;27.58;49.90;101861.16;4997540;28;20037;-85
2021/08/21 10:29:16;;;;;;;7.00;5.60;;;;;;;26.73;53.01;101866.06;5000668;28;20616;-87
2021/08/21 10:32:08;;;;;;;10.00;6.13;;;;;;;26.09;52.72;101864.59;4995166;28;20061;-81
2021/08/21 10:35:15;;;;;;;7.65;5.53;;;;;;;25.89;56.36;101876.84;5005836;28;20046;-80
2021/08/21 10:38:00;;;;;;;10.00;5.93;;;;;;;25.67;56.81;101878.47;5014517;28;20037;-82
2021/08/21 10:40:31;;;;;;;6.90;4.95;;;;;;;25.47;58.68;101871.84;4992846;28;20037;-86
2021/08/21 10:43:03;;;;;;;6.32;4.10;;;;;;;25.71;55.32;101869.34;4990104;28;20034;-81
2021/08/21 10:45:45;;;;;;;7.55;3.47;;;;;;;26.25;55.21;101864.97;4995927;28;20082;-84
2021/08/21 10:48:26;;;;;;;7.67;3.87;;;;;;;26.29;56.07;101860.34;4995224;28;20105;-83
2021/08/21 10:50:52;;;;;;;7.85;4.22;;;;;;;26.36;52.53;101859.22;4998920;28;20281;-86
2021/08/21 10:53:46;;;;;;;9.35;3.90;;;;;;;26.40;53.21;101848.25;5012566;28;20037;-85
2021/08/21 10:56:35;;;;;;;6.97;3.45;;;;;;;26.24;55.84;101858.69;5012344;28;20087;-86
2021/08/21 10:59:11;;;;;;;;;;;;;;;;;;;;;
2021/08/21 11:01:37;;;;;;;4.82;3.42;;;;;;;26.61;52.17;101850.28;5017354;28;20044;-79
2021/08/21 11:04:43;;;;;;;4.40;3.45;;;;;;;26.76;54.86;101849.75;5011733;28;20061;-87
2021/08/21 11:07:27;;;;;;;7.82;4.20;;;;;;;26.83;50.17;101840.53;5003949;28;20057;-87
2021/08/21 11:10:21;;;;;;;6.20;4.38;;;;;;;27.06;51.56;101841.47;5012895;28;20029;-86
2021/08/21 11:12:50;;;;;;;5.03;4.38;;;;;;;27.46;50.58;101831.03;5017155;28;20444;-84
2021/08/21 11:16:09;;;;;;;6.05;4.40;;;;;;;27.96;50.47;101830.84;4988006;28;20061;-84
2021/08/21 11:18:46;;;;;;;11.20;5.57;;;;;;;28.21;49.71;101836.13;5029444;28;20044;-82
2021/08/21 11:21:33;;;;;;;8.35;5.93;;;;;;;28.09;49.25;101833.94;5073334;28;20028;-81
2021/08/21 11:24:34;;;;;;;8.93;5.75;;;;;;;27.50;49.31;101825.44;5012597;28;20384;-80
2021/08/21 11:27:25;;;;;;;10.23;5.88;;;;;;;26.93;51.25;101830.25;4996952;28;20033;-82
2021/08/21 11:33:39;;;;;;;9.55;5.32;;;;;;;26.33;55.33;101837.72;4999701;28;20302;-80
2021/08/21 11:36:29;;;;;;;9.20;6.40;;;;;;;25.92;53.25;101830.94;4986470;28;20412;-82
2021/08/21 11:39:18;;;;;;;10.88;6.03;;;;;;;25.64;52.33;101832.69;5003730;28;20041;-83